createdAt,value
2023-01-19T03:37:54.334Z,71.90
2023-01-19T03:40:24.566Z,70.85
2023-01-19T03:42:54.274Z,72.34
2023-01-19T03:45:24.776Z,70.73
2023-01-19T03:47:54.838Z,70.73
2023-01-19T03:50:28.861Z,71.22
2023-01-19T03:53:14.024Z,70.53
2023-01-19T03:55:48.185Z,71.41
2023-01-19T03:58:17.098Z,70.06
2023-01-19T04:00:45.887Z,69.74
2023-01-19T04:03:17.683Z,68.83
2023-01-19T04:05:47.022Z,67.45
2023-01-19T04:08:15.893Z,67.57
2023-01-19T04:10:44.728Z,69.13
2023-01-19T04:13:13.494Z,69.98
2023-01-19T04:15:42.530Z,69.30
2023-01-19T04:18:11.535Z,68.40
2023-01-19T04:20:40.506Z,67.21
2023-01-19T04:23:09.227Z,65.45
2023-01-19T04:25:39.055Z,65.31
2023-01-19T04:28:07.885Z,64.30
2023-01-19T04:30:36.756Z,64.07
2023-01-19T04:33:05.514Z,63.49
2023-01-19T04:35:36.192Z,62.54
2023-01-19T04:38:05.409Z,61.07
2023-01-19T04:40:34.330Z,61.62
2023-01-19T04:43:03.766Z,60.85
2023-01-19T04:45:33.237Z,61.76
2023-01-19T04:48:01.994Z,61.31
2023-01-19T04:50:31.586Z,61.45
2023-01-19T04:53:01.916Z,60.93
2023-01-19T04:55:31.081Z,62.59
2023-01-19T04:58:00.352Z,62.72
2023-01-19T05:00:29.401Z,65.11
2023-01-19T05:02:58.363Z,63.83
2023-01-19T05:05:28.363Z,63.58
2023-01-19T05:07:57.352Z,64.27
2023-01-19T05:10:26.329Z,63.15
2023-01-19T05:12:55.124Z,63.90
2023-01-19T05:15:24.708Z,64.05
2023-01-19T05:17:53.806Z,62.98
2023-01-19T05:20:22.648Z,60.79
2023-01-19T05:22:52.981Z,62.47
2023-01-19T05:25:22.154Z,61.19
2023-01-19T05:27:51.130Z,60.35
2023-01-19T05:30:20.683Z,61.53
2023-01-19T05:32:49.610Z,61.19
2023-01-19T05:35:27.793Z,61.25
2023-01-19T05:38:00.637Z,62.23
2023-01-19T05:40:30.055Z,61.65
2023-01-19T05:43:02.891Z,59.79
2023-01-19T05:45:32.181Z,58.01
2023-01-19T05:48:03.196Z,56.14
2023-01-19T05:50:32.696Z,56.84
2023-01-19T05:53:02.655Z,58.38
2023-01-19T05:55:33.272Z,57.95
2023-01-19T05:58:02.352Z,59.06
2023-01-19T06:00:31.278Z,59.14
2023-01-19T06:03:01.897Z,58.27
2023-01-19T06:05:31.337Z,57.75
2023-01-19T06:08:00.177Z,55.44
2023-01-19T06:10:29.522Z,51.56
2023-01-19T06:12:58.673Z,52.59
2023-01-19T06:15:28.808Z,52.68
2023-01-19T06:17:57.828Z,51.28
2023-01-19T06:20:26.753Z,49.11
2023-01-19T06:22:59.206Z,51.66
2023-01-19T06:25:28.419Z,49.98
2023-01-19T06:27:57.347Z,47.34
2023-01-19T06:30:26.441Z,49.47
2023-01-19T06:32:55.567Z,47.43
2023-01-19T06:35:24.812Z,49.82
2023-01-19T06:37:54.463Z,48.09
2023-01-19T06:40:23.679Z,45.72
2023-01-19T06:42:52.535Z,45.16
2023-01-19T06:45:21.559Z,44.64
2023-01-19T06:47:50.811Z,44.92
2023-01-19T06:50:19.967Z,47.81
2023-01-19T06:52:51.974Z,50.59
2023-01-19T06:55:21.490Z,48.74
2023-01-19T06:58:02.353Z,51.09
2023-01-19T07:00:31.731Z,50.20
2023-01-19T07:03:00.737Z,47.15
2023-01-19T07:05:30.131Z,48.67
2023-01-19T07:07:59.610Z,46.27
2023-01-19T07:11:25.246Z,48.19
2023-01-19T07:13:18.641Z,49.73
2023-01-19T07:15:47.693Z,46.65
2023-01-19T07:18:16.588Z,45.19
2023-01-19T07:20:47.786Z,46.94
2023-01-19T07:23:19.410Z,47.92
2023-01-19T07:25:48.470Z,48.14
2023-01-19T07:28:18.021Z,48.87
2023-01-19T07:30:47.842Z,50.13
2023-01-19T07:33:16.945Z,47.79
2023-01-19T07:35:50.323Z,45.65
2023-01-19T07:38:20.685Z,47.29
2023-01-19T07:40:50.015Z,47.26
2023-01-19T07:43:18.994Z,47.82
2023-01-19T07:45:47.742Z,48.11
2023-01-19T07:48:16.657Z,48.20
2023-01-19T07:50:46.128Z,49.18
2023-01-19T07:53:15.497Z,49.18
2023-01-19T07:55:45.135Z,49.17
2023-01-19T07:58:13.938Z,48.18
2023-01-19T08:00:43.206Z,45.86
2023-01-19T08:03:12.553Z,45.91
2023-01-19T08:05:41.445Z,47.03
2023-01-19T08:08:12.498Z,46.52
2023-01-19T08:10:41.558Z,45.14
2023-01-19T08:13:10.376Z,47.62
2023-01-19T08:15:39.994Z,49.22
2023-01-19T08:18:10.787Z,48.06
2023-01-19T08:20:40.730Z,48.31
2023-01-19T08:23:09.701Z,51.24
2023-01-19T08:25:47.250Z,51.63
2023-01-19T08:28:19.931Z,52.56
2023-01-19T08:30:55.319Z,54.03
2023-01-19T08:33:26.247Z,53.61
2023-01-19T08:35:55.588Z,53.86
2023-01-19T08:38:24.299Z,54.22
2023-01-19T08:40:53.283Z,54.78
2023-01-19T08:43:22.062Z,54.53
2023-01-19T08:45:54.561Z,55.45
2023-01-19T08:48:24.879Z,55.02
2023-01-19T08:50:54.476Z,54.08
2023-01-19T08:53:24.556Z,54.47
2023-01-19T08:55:58.600Z,54.70
2023-01-19T08:58:27.772Z,53.16
2023-01-19T09:00:56.927Z,53.44
2023-01-19T09:03:25.798Z,53.49
2023-01-19T09:05:54.675Z,54.82
2023-01-19T09:08:24.448Z,53.92
2023-01-19T09:10:53.537Z,55.16
2023-01-19T09:13:22.506Z,55.81
2023-01-19T09:15:52.088Z,54.59
2023-01-19T09:18:23.626Z,53.87
2023-01-19T09:20:52.610Z,55.18
2023-01-19T09:23:22.391Z,54.92
2023-01-19T09:25:58.420Z,55.80
2023-01-19T09:28:28.272Z,54.09
2023-01-19T09:30:57.411Z,54.91
2023-01-19T09:33:26.456Z,55.17
2023-01-19T09:35:56.013Z,56.55
2023-01-19T09:38:26.753Z,58.55
2023-01-19T09:41:00.868Z,58.60
2023-01-19T09:43:44.028Z,57.43
2023-01-19T09:46:17.871Z,57.48
2023-01-19T09:48:54.222Z,58.63
2023-01-19T09:51:35.765Z,58.44
2023-01-19T09:54:18.502Z,57.82
2023-01-19T09:56:52.698Z,59.32
2023-01-19T09:59:31.013Z,60.15
2023-01-19T10:02:12.611Z,61.46
2023-01-19T10:04:42.547Z,60.64
2023-01-19T10:07:15.435Z,61.86
2023-01-19T10:09:53.695Z,61.98
2023-01-19T10:12:43.259Z,62.24
2023-01-19T10:15:34.553Z,61.78
2023-01-19T10:18:06.808Z,61.60
2023-01-19T10:21:14.893Z,63.89
2023-01-19T10:23:55.633Z,64.71
2023-01-19T10:26:37.476Z,63.75
2023-01-19T10:29:37.248Z,64.52
2023-01-19T10:32:13.938Z,64.83
2023-01-19T10:34:42.857Z,65.70
2023-01-19T10:37:38.699Z,65.60
2023-01-19T10:40:13.802Z,65.64
2023-01-19T10:42:43.849Z,66.69
2023-01-19T10:45:19.747Z,66.95
2023-01-19T10:47:50.677Z,67.64
2023-01-19T10:50:30.788Z,68.50
2023-01-19T10:53:03.192Z,69.37
2023-01-19T10:55:35.870Z,68.24
2023-01-19T10:58:05.625Z,69.41
2023-01-19T11:00:40.079Z,69.08
2023-01-19T11:03:26.112Z,68.68
2023-01-19T11:06:00.182Z,69.87
2023-01-19T11:08:32.839Z,70.49
2023-01-19T11:11:05.466Z,68.72
2023-01-19T11:13:35.475Z,69.38
2023-01-19T11:16:32.160Z,70.77
2023-01-19T11:19:03.134Z,68.76
2023-01-19T11:21:34.450Z,69.76
2023-01-19T11:24:10.488Z,70.95
2023-01-19T11:26:44.455Z,70.21
2023-01-19T11:29:28.603Z,69.59
2023-01-19T11:32:20.758Z,70.55
2023-01-19T11:34:51.614Z,70.37
2023-01-19T11:37:20.444Z,72.76
2023-01-19T11:39:56.053Z,75.07
2023-01-19T11:42:26.850Z,76.37
2023-01-19T11:45:28.394Z,75.36
2023-01-19T11:47:58.081Z,75.37
2023-01-19T11:50:31.155Z,76.39
2023-01-19T11:53:12.091Z,78.16
2023-01-19T11:56:00.798Z,80.56
2023-01-19T11:58:29.861Z,80.80
2023-01-19T12:01:09.156Z,82.45
2023-01-19T12:03:48.788Z,81.09
2023-01-19T12:06:25.759Z,80.79
2023-01-19T12:08:59.811Z,79.55
2023-01-19T12:11:36.916Z,81.70
2023-01-19T12:14:08.408Z,85.57
2023-01-19T12:16:40.322Z,86.87
2023-01-19T12:19:17.803Z,90.05
2023-01-19T12:21:50.764Z,90.34
2023-01-19T12:24:39.078Z,92.50
2023-01-19T12:27:28.080Z,94.55
2023-01-19T12:29:57.128Z,95.34
2023-01-19T12:32:38.081Z,96.07
2023-01-19T12:35:07.450Z,93.59
2023-01-19T12:37:40.896Z,96.60
2023-01-19T12:40:21.698Z,97.70
2023-01-19T12:43:07.095Z,99.89
2023-01-19T12:45:40.833Z,100.00
2023-01-19T12:48:26.231Z,100.00
2023-01-19T12:50:55.327Z,100.00
2023-01-19T12:53:24.112Z,100.00
2023-01-19T12:56:01.935Z,100.00
2023-01-19T12:58:30.993Z,100.00
2023-01-19T13:01:22.076Z,100.00
2023-01-19T13:04:27.308Z,100.00
2023-01-19T13:06:56.365Z,100.00
2023-01-19T13:09:34.987Z,100.00
2023-01-19T13:12:16.350Z,100.00
2023-01-19T13:14:45.857Z,100.00
2023-01-19T13:17:28.178Z,100.00
2023-01-19T13:20:17.364Z,100.00
2023-01-19T13:22:52.349Z,100.00
2023-01-19T13:25:36.709Z,100.00
2023-01-19T13:28:11.473Z,100.00
2023-01-19T13:30:53.470Z,100.00
2023-01-19T13:33:26.590Z,100.00
2023-01-19T13:36:01.350Z,100.00
2023-01-19T13:38:34.030Z,100.00
2023-01-19T13:41:04.920Z,100.00
2023-01-19T13:43:39.067Z,100.00
2023-01-19T13:46:12.245Z,100.00
2023-01-19T13:48:53.207Z,100.00
2023-01-19T13:51:22.552Z,100.00
2023-01-19T13:54:05.048Z,100.00
2023-01-19T13:56:34.496Z,100.00
2023-01-19T13:59:17.285Z,100.00
2023-01-19T14:01:47.781Z,100.00
2023-01-19T14:04:28.192Z,100.00
2023-01-19T14:07:01.650Z,100.00
2023-01-19T14:09:30.490Z,100.00
2023-01-19T14:12:26.582Z,100.00
2023-01-19T14:14:57.158Z,100.00
2023-01-19T14:17:28.543Z,100.00
2023-01-19T14:19:59.470Z,100.00
2023-01-19T14:22:44.635Z,100.00
2023-01-19T14:25:45.932Z,100.00
2023-01-19T14:28:36.182Z,100.00
2023-01-19T14:31:25.913Z,100.00
2023-01-19T14:33:56.914Z,100.00
2023-01-19T14:36:40.148Z,100.00
2023-01-19T14:39:24.081Z,100.00
2023-01-19T14:41:54.493Z,100.00
